Time;durP1;ratioP1;P1;durP2;ratioP2;P2;SDS_P1;SDS_P2;PMS_P1;PMS_P2;Temp;Humidity;BMP_temperature;BMP_pressure;BME280_temperature;BME280_humidity;BME280_pressure;Samples;Min_cycle;Max_cycle;Signal;HPM_P1;HPM_P2
2023/06/15 00:00:21;;;;;;;5.70;2.50;;;17.50;96.40;;;;;;4993558;28;20049;-67
2023/06/15 00:02:47;;;;;;;14.10;3.35;;;17.50;96.60;;;;;;4994144;28;20038;-66
2023/06/15 00:05:12;;;;;;;8.00;2.40;;;17.50;96.70;;;;;;4994245;28;20394;-66
2023/06/15 00:07:38;;;;;;;5.90;2.20;;;17.50;96.60;;;;;;4993939;28;20038;-66
2023/06/15 00:10:04;;;;;;;3.55;2.35;;;17.50;96.70;;;;;;4993479;28;20034;-67
2023/06/15 00:12:30;;;;;;;4.00;2.20;;;17.50;96.60;;;;;;4994284;28;20045;-66
2023/06/15 00:14:56;;;;;;;5.30;2.40;;;17.50;96.70;;;;;;4993038;28;20379;-67
2023/06/15 00:17:22;;;;;;;6.57;2.90;;;17.50;96.70;;;;;;4993812;28;20108;-66
2023/06/15 00:19:48;;;;;;;3.88;2.30;;;17.50;96.90;;;;;;4992091;28;20081;-67
2023/06/15 00:22:15;;;;;;;5.85;2.40;;;17.40;96.80;;;;;;4993822;28;20082;-67
2023/06/15 00:24:43;;;;;;;6.45;2.58;;;17.40;96.90;;;;;;4993672;28;20058;-66
2023/06/15 00:27:10;;;;;;;5.35;2.80;;;17.40;96.90;;;;;;4993668;28;20038;-67
2023/06/15 00:29:36;;;;;;;6.38;3.05;;;17.40;97.00;;;;;;4993231;28;20073;-67
2023/06/15 00:32:04;;;;;;;6.15;2.33;;;17.30;97.30;;;;;;4993872;28;20434;-67
2023/06/15 00:34:30;;;;;;;5.50;2.55;;;17.30;97.50;;;;;;4993776;28;20403;-67
2023/06/15 00:36:56;;;;;;;6.25;2.55;;;17.30;97.60;;;;;;4991906;28;20152;-67
2023/06/15 00:39:21;;;;;;;4.47;2.50;;;17.30;97.70;;;;;;4992546;28;20038;-67
2023/06/15 00:41:47;;;;;;;5.20;2.47;;;17.20;97.80;;;;;;4993289;28;20042;-67
2023/06/15 00:44:12;;;;;;;5.97;3.13;;;17.20;98.10;;;;;;4993467;28;20043;-67
2023/06/15 00:46:39;;;;;;;5.68;2.72;;;17.10;98.30;;;;;;4992981;28;20125;-67
2023/06/15 00:49:05;;;;;;;3.70;3.08;;;17.20;98.70;;;;;;4992941;28;20465;-66
2023/06/15 00:51:34;;;;;;;8.63;3.40;;;17.20;98.50;;;;;;4993411;28;20042;-67
2023/06/15 00:54:00;;;;;;;7.93;3.90;;;17.10;98.60;;;;;;4993161;28;20537;-67
2023/06/15 00:56:29;;;;;;;8.45;3.63;;;17.10;98.80;;;;;;4992744;28;20516;-67
2023/06/15 00:58:58;;;;;;;7.25;3.20;;;17.00;98.90;;;;;;4992717;28;20572;-67
2023/06/15 01:01:24;;;;;;;6.97;3.90;;;17.00;99.30;;;;;;4993336;28;20038;-67
2023/06/15 01:03:50;;;;;;;7.30;3.95;;;17.00;99.20;;;;;;4992990;28;20517;-66
2023/06/15 01:06:19;;;;;;;9.48;4.20;;;17.00;99.30;;;;;;4992575;28;20042;-66
2023/06/15 01:08:47;;;;;;;10.57;5.07;;;17.00;99.50;;;;;;4992897;28;20067;-66
2023/06/15 01:11:14;;;;;;;9.98;4.20;;;17.00;99.50;;;;;;4992757;28;20080;-67
2023/06/15 01:13:45;;;;;;;8.30;4.18;;;17.00;99.80;;;;;;4993048;28;20041;-66
2023/06/15 01:16:40;;;;;;;10.20;5.05;;;17.00;99.90;;;;;;4992555;28;20085;-66
2023/06/15 01:19:31;;;;;;;9.75;4.40;;;16.90;99.90;;;;;;4991468;28;20454;-66
2023/06/15 01:22:34;;;;;;;8.57;4.15;;;16.90;99.90;;;;;;4988983;28;20058;-67
2023/06/15 01:25:09;;;;;;;6.67;3.77;;;16.90;99.90;;;;;;4990108;28;20089;-67
2023/06/15 01:27:37;;;;;;;11.70;4.40;;;16.90;99.90;;;;;;4992595;28;20358;-67
2023/06/15 01:30:07;;;;;;;7.65;4.00;;;16.80;99.90;;;;;;4992004;28;20046;-66
2023/06/15 01:32:34;;;;;;;6.60;3.55;;;16.80;99.90;;;;;;4992783;28;20038;-67
2023/06/15 01:35:00;;;;;;;10.80;4.38;;;16.80;99.90;;;;;;4992676;28;20045;-66
2023/06/15 01:37:26;;;;;;;8.55;4.15;;;16.80;99.90;;;;;;4992259;28;20494;-66
2023/06/15 01:39:51;;;;;;;11.65;5.03;;;16.80;99.90;;;;;;4991937;28;20108;-66
2023/06/15 01:42:17;;;;;;;9.20;4.32;;;16.80;99.90;;;;;;4992586;28;20031;-66
2023/06/15 01:44:44;;;;;;;7.80;4.85;;;16.80;99.90;;;;;;4992240;28;20038;-67
2023/06/15 01:47:11;;;;;;;13.13;5.05;;;16.70;99.90;;;;;;4992087;28;20038;-67
2023/06/15 01:49:37;;;;;;;8.20;4.30;;;16.70;99.90;;;;;;4991751;28;20034;-67
2023/06/15 01:52:03;;;;;;;6.88;4.72;;;16.60;99.90;;;;;;4992352;28;20533;-66
2023/06/15 01:54:28;;;;;;;6.15;4.07;;;16.50;99.90;;;;;;4992249;28;20082;-67
2023/06/15 01:56:54;;;;;;;8.73;4.68;;;16.50;99.90;;;;;;4992092;28;20042;-67
2023/06/15 01:59:20;;;;;;;9.43;5.05;;;16.60;99.90;;;;;;4991921;28;20076;-67
2023/06/15 02:01:45;;;;;;;7.72;4.43;;;16.60;99.90;;;;;;4992371;28;20050;-66
2023/06/15 02:04:11;;;;;;;11.70;4.32;;;16.60;99.90;;;;;;4991901;28;20049;-66
2023/06/15 02:06:36;;;;;;;5.95;4.10;;;16.50;99.90;;;;;;4991901;28;20034;-66
2023/06/15 02:09:02;;;;;;;10.10;4.43;;;16.50;99.90;;;;;;4991605;28;20081;-67
2023/06/15 02:11:28;;;;;;;8.98;3.90;;;16.50;99.90;;;;;;4992226;28;20034;-67
2023/06/15 02:13:53;;;;;;;9.32;4.90;;;16.50;99.90;;;;;;4992334;28;20038;-66
2023/06/15 02:16:19;;;;;;;7.90;4.30;;;16.60;99.90;;;;;;4991630;28;20034;-66
2023/06/15 02:18:45;;;;;;;7.05;4.28;;;16.50;99.90;;;;;;4992032;28;20065;-66
2023/06/15 02:21:11;;;;;;;6.55;3.85;;;16.50;99.90;;;;;;4991808;28;20522;-67
2023/06/15 02:23:37;;;;;;;9.55;3.72;;;16.50;99.90;;;;;;4991894;28;20042;-66
2023/06/15 02:26:03;;;;;;;6.10;3.92;;;16.50;99.90;;;;;;4992235;28;20042;-66
2023/06/15 02:28:29;;;;;;;8.00;4.40;;;16.40;99.90;;;;;;4991890;28;20035;-67
2023/06/15 02:30:55;;;;;;;7.00;3.92;;;16.40;99.90;;;;;;4991512;28;20181;-66
2023/06/15 02:33:22;;;;;;;7.68;4.30;;;16.40;99.90;;;;;;4992146;28;20052;-67
2023/06/15 02:35:47;;;;;;;8.73;4.25;;;16.40;99.90;;;;;;4991924;28;20089;-66
2023/06/15 02:38:13;;;;;;;13.60;4.32;;;16.40;99.90;;;;;;4991564;28;20049;-66
2023/06/15 02:40:38;;;;;;;6.32;4.07;;;16.40;99.90;;;;;;4991677;28;20043;-66
2023/06/15 02:43:04;;;;;;;4.28;3.20;;;16.40;99.90;;;;;;4994344;28;20046;-66
2023/06/15 02:45:30;;;;;;;10.60;4.38;;;16.40;99.90;;;;;;4995863;28;20481;-66
2023/06/15 02:47:56;;;;;;;8.38;3.75;;;16.40;99.90;;;;;;4995441;28;20112;-69
2023/06/15 02:50:21;;;;;;;9.88;4.82;;;16.40;99.90;;;;;;4995124;28;20038;-69
2023/06/15 02:52:47;;;;;;;10.18;4.13;;;16.40;99.90;;;;;;4995093;28;20053;-69
2023/06/15 02:55:13;;;;;;;6.05;3.63;;;16.40;99.90;;;;;;4995555;28;20034;-69
2023/06/15 02:57:40;;;;;;;6.30;4.03;;;16.40;99.90;;;;;;4995093;28;20125;-66
2023/06/15 03:00:12;;;;;;;9.32;4.00;;;16.40;99.90;;;;;;4994756;28;20042;-66
2023/06/15 03:02:37;;;;;;;6.32;3.67;;;16.40;99.90;;;;;;4995666;28;20085;-66
2023/06/15 03:05:03;;;;;;;8.68;4.13;;;16.30;99.90;;;;;;4995145;28;20135;-66
2023/06/15 03:07:30;;;;;;;6.55;3.55;;;16.40;99.90;;;;;;4994975;28;20141;-66
2023/06/15 03:09:56;;;;;;;8.68;3.65;;;16.30;99.90;;;;;;4994741;28;20388;-67
2023/06/15 03:12:21;;;;;;;9.30;4.00;;;16.40;99.90;;;;;;4995401;28;20045;-66
2023/06/15 03:14:50;;;;;;;5.80;3.30;;;16.30;99.90;;;;;;4995247;28;20034;-67
2023/06/15 03:17:17;;;;;;;7.93;4.05;;;16.30;99.90;;;;;;4994852;28;20077;-66
2023/06/15 03:19:46;;;;;;;10.05;3.95;;;16.40;99.90;;;;;;4994508;28;20121;-66
2023/06/15 03:22:12;;;;;;;9.30;3.88;;;16.40;99.90;;;;;;4995236;28;20042;-66
2023/06/15 03:24:39;;;;;;;5.78;4.05;;;16.40;99.90;;;;;;4995094;28;20039;-67
2023/06/15 03:27:06;;;;;;;6.47;3.83;;;16.30;99.90;;;;;;4994741;28;20031;-67
2023/06/15 03:29:36;;;;;;;6.03;4.05;;;16.30;99.90;;;;;;4994439;28;20121;-66
2023/06/15 03:32:07;;;;;;;8.05;4.03;;;16.40;99.90;;;;;;4994830;28;20413;-66
2023/06/15 03:34:32;;;;;;;7.25;3.83;;;16.40;99.90;;;;;;4994735;28;20034;-66
2023/06/15 03:36:58;;;;;;;8.75;3.83;;;16.40;99.90;;;;;;4994287;28;20096;-67
2023/06/15 03:39:24;;;;;;;5.57;3.72;;;16.40;99.90;;;;;;4994282;28;20045;-67
2023/06/15 03:41:50;;;;;;;6.63;3.58;;;16.40;99.90;;;;;;4994697;28;20042;-67
2023/06/15 03:44:16;;;;;;;7.15;3.88;;;16.40;99.90;;;;;;4994461;28;20538;-67
2023/06/15 03:46:41;;;;;;;7.40;3.28;;;16.50;99.90;;;;;;4991762;28;20121;-67
2023/06/15 03:49:07;;;;;;;4.50;3.22;;;16.50;99.90;;;;;;4992833;28;20042;-66
2023/06/15 03:51:33;;;;;;;7.93;3.78;;;16.50;99.90;;;;;;4991910;28;20053;-66
2023/06/15 03:53:59;;;;;;;8.77;3.80;;;16.60;99.90;;;;;;4989710;28;20042;-67
2023/06/15 03:56:25;;;;;;;6.55;3.22;;;16.60;99.90;;;;;;4994006;28;20042;-69
2023/06/15 03:58:50;;;;;;;9.32;3.85;;;16.60;99.90;;;;;;4994228;28;20052;-69
2023/06/15 04:01:16;;;;;;;4.88;3.35;;;16.60;99.90;;;;;;4994063;28;20042;-69
2023/06/15 04:03:42;;;;;;;6.55;3.00;;;16.60;99.90;;;;;;4994393;28;20054;-69
2023/06/15 04:06:07;;;;;;;8.32;3.50;;;16.60;99.90;;;;;;4994133;28;20058;-67
2023/06/15 04:08:35;;;;;;;6.78;3.20;;;16.70;99.90;;;;;;4993964;28;20038;-67
2023/06/15 04:11:00;;;;;;;7.57;3.30;;;16.70;99.90;;;;;;4993626;28;20038;-67
2023/06/15 04:13:26;;;;;;;4.95;3.50;;;16.70;99.90;;;;;;4994132;28;20594;-67
2023/06/15 04:15:55;;;;;;;8.07;3.22;;;16.80;99.90;;;;;;4993977;28;20038;-67
2023/06/15 04:18:21;;;;;;;6.32;3.13;;;16.80;99.90;;;;;;4992419;28;20040;-69
2023/06/15 04:20:47;;;;;;;5.50;3.38;;;16.80;99.90;;;;;;4993358;28;20121;-67
2023/06/15 04:23:12;;;;;;;9.20;2.92;;;16.90;99.90;;;;;;4993955;28;20129;-67
2023/06/15 04:25:40;;;;;;;5.53;3.50;;;16.90;99.90;;;;;;4994173;28;20429;-67
2023/06/15 04:28:10;;;;;;;8.68;4.35;;;17.00;99.90;;;;;;4993557;28;20560;-68
2023/06/15 04:30:37;;;;;;;5.30;3.00;;;17.00;99.90;;;;;;4993272;28;20053;-68
2023/06/15 04:33:04;;;;;;;8.98;3.83;;;17.00;99.90;;;;;;4994152;28;20097;-67
2023/06/15 04:35:31;;;;;;;4.75;3.03;;;17.10;99.90;;;;;;4992589;28;20453;-68
2023/06/15 04:38:02;;;;;;;4.97;3.53;;;17.10;99.90;;;;;;4993478;28;20049;-67
2023/06/15 04:40:28;;;;;;;6.63;3.60;;;17.20;99.90;;;;;;4993245;28;20052;-67
2023/06/15 04:42:54;;;;;;;6.40;3.58;;;17.20;99.90;;;;;;4993519;28;20043;-68
2023/06/15 04:45:20;;;;;;;7.72;3.47;;;17.40;99.90;;;;;;4993423;28;20060;-68
2023/06/15 04:47:47;;;;;;;7.10;3.88;;;17.50;99.90;;;;;;4993417;28;20100;-68
2023/06/15 04:50:13;;;;;;;5.40;3.55;;;17.70;99.90;;;;;;4992982;28;20042;-68
2023/06/15 04:52:40;;;;;;;7.68;3.63;;;17.80;99.90;;;;;;4993497;28;20042;-68
2023/06/15 04:55:06;;;;;;;4.68;2.85;;;18.00;99.90;;;;;;4993333;28;20076;-68
2023/06/15 04:57:31;;;;;;;6.60;3.92;;;18.20;99.00;;;;;;4993081;28;20482;-68
2023/06/15 04:59:57;;;;;;;7.78;3.55;;;18.30;97.90;;;;;;4992888;28;20104;-68
2023/06/15 05:02:22;;;;;;;8.15;3.65;;;18.50;96.90;;;;;;4993014;28;20038;-68
2023/06/15 05:04:48;;;;;;;5.80;3.00;;;18.70;95.60;;;;;;4992787;28;20077;-68
2023/06/15 05:07:14;;;;;;;6.13;3.20;;;18.80;94.80;;;;;;4993007;28;20110;-67
2023/06/15 05:09:39;;;;;;;4.70;3.20;;;19.00;93.90;;;;;;4992691;28;20077;-68
2023/06/15 05:12:05;;;;;;;6.05;3.13;;;19.20;92.90;;;;;;4992813;28;20042;-68
2023/06/15 05:14:31;;;;;;;5.53;3.03;;;19.40;92.30;;;;;;4992932;28;20042;-68
2023/06/15 05:16:57;;;;;;;8.70;4.63;;;19.60;91.60;;;;;;4992615;28;20677;-68
2023/06/15 05:19:22;;;;;;;5.85;3.53;;;19.80;90.70;;;;;;4992396;28;20410;-68
2023/06/15 05:21:50;;;;;;;5.90;2.75;;;20.00;88.40;;;;;;4992822;28;20045;-68
2023/06/15 05:24:15;;;;;;;4.60;2.67;;;20.10;85.10;;;;;;4992677;28;20117;-68
2023/06/15 05:26:41;;;;;;;5.53;2.55;;;20.10;84.20;;;;;;4992398;28;20114;-68
2023/06/15 05:29:06;;;;;;;5.50;2.78;;;20.30;82.50;;;;;;4991278;28;20047;-68
2023/06/15 05:31:33;;;;;;;4.63;2.60;;;20.50;81.30;;;;;;4992674;28;20088;-69
2023/06/15 05:33:58;;;;;;;6.05;2.70;;;20.70;79.90;;;;;;4993131;28;20046;-69
2023/06/15 05:36:30;;;;;;;6.03;2.20;;;20.80;79.00;;;;;;4992384;28;20104;-69
2023/06/15 05:38:56;;;;;;;6.22;3.00;;;21.00;77.80;;;;;;4992111;28;20046;-69
2023/06/15 05:41:22;;;;;;;4.97;2.47;;;21.10;75.40;;;;;;4992250;28;20105;-69
2023/06/15 05:43:48;;;;;;;4.18;2.50;;;21.30;74.60;;;;;;4992559;28;20422;-69
2023/06/15 05:46:13;;;;;;;3.47;2.28;;;21.50;72.80;;;;;;4992373;28;20496;-69
2023/06/15 05:48:39;;;;;;;7.57;3.15;;;21.60;72.20;;;;;;4992334;28;20541;-69
2023/06/15 05:51:04;;;;;;;6.13;2.45;;;21.60;70.50;;;;;;4991725;28;20085;-69
2023/06/15 05:53:30;;;;;;;5.40;2.40;;;21.80;68.80;;;;;;4992400;28;20088;-69
2023/06/15 05:55:56;;;;;;;4.00;2.08;;;22.00;68.20;;;;;;4990504;28;20129;-69
2023/06/15 05:58:21;;;;;;;3.75;2.10;;;22.00;67.40;;;;;;4991586;28;20038;-69
2023/06/15 06:00:47;;;;;;;5.68;2.45;;;22.10;66.10;;;;;;4991447;28;20038;-69
2023/06/15 06:03:12;;;;;;;4.15;2.60;;;22.20;64.50;;;;;;4992258;28;20049;-69
2023/06/15 06:05:38;;;;;;;8.15;2.38;;;22.50;63.40;;;;;;4991875;28;20042;-69
2023/06/15 06:08:03;;;;;;;7.70;1.98;;;22.60;62.50;;;;;;4990539;28;20042;-69
2023/06/15 06:10:29;;;;;;;5.32;2.35;;;22.80;61.80;;;;;;4991119;28;20093;-68
2023/06/15 06:12:55;;;;;;;5.85;2.40;;;23.00;61.70;;;;;;4990193;28;20512;-69
2023/06/15 06:15:21;;;;;;;5.70;2.40;;;23.20;60.40;;;;;;4992415;28;20046;-68
2023/06/15 06:17:47;;;;;;;7.10;2.72;;;23.50;59.50;;;;;;4993920;28;20118;-69
2023/06/15 06:20:13;;;;;;;11.63;3.58;;;23.40;58.40;;;;;;4994320;28;20050;-69
2023/06/15 06:22:38;;;;;;;5.93;2.10;;;23.50;56.50;;;;;;4995952;28;20069;-69
2023/06/15 06:25:04;;;;;;;2.97;1.92;;;23.40;55.20;;;;;;4996016;28;20065;-68
2023/06/15 06:27:30;;;;;;;5.53;2.30;;;23.50;55.10;;;;;;4996053;28;20101;-68
2023/06/15 06:29:58;;;;;;;5.97;2.65;;;23.60;54.60;;;;;;4995416;28;20502;-69
2023/06/15 06:32:23;;;;;;;5.05;2.53;;;23.60;54.70;;;;;;4996149;28;20057;-68
2023/06/15 06:34:49;;;;;;;7.72;2.80;;;23.90;53.60;;;;;;4996028;28;20042;-68
2023/06/15 06:37:14;;;;;;;4.22;2.10;;;24.00;53.10;;;;;;4995479;28;20402;-68
2023/06/15 06:39:40;;;;;;;4.43;2.40;;;24.20;52.90;;;;;;4995211;28;20042;-68
2023/06/15 06:42:06;;;;;;;9.75;2.25;;;24.30;52.20;;;;;;4994905;28;20042;-69
2023/06/15 06:44:31;;;;;;;3.42;2.08;;;24.30;51.50;;;;;;4995668;28;20442;-68
2023/06/15 06:46:57;;;;;;;4.63;2.42;;;24.40;51.20;;;;;;4995370;28;20071;-69
2023/06/15 06:49:23;;;;;;;4.40;2.65;;;24.50;51.10;;;;;;4995322;28;20042;-68
2023/06/15 06:51:48;;;;;;;4.80;2.63;;;24.50;50.90;;;;;;4995710;28;20038;-69
2023/06/15 06:54:14;;;;;;;4.45;2.88;;;24.70;50.30;;;;;;4995409;28;20038;-69
2023/06/15 06:56:39;;;;;;;5.45;2.63;;;24.80;50.30;;;;;;4995461;28;20046;-69
2023/06/15 06:59:05;;;;;;;5.95;2.80;;;24.90;49.50;;;;;;4995286;28;20466;-68
2023/06/15 07:01:31;;;;;;;5.53;2.80;;;25.00;49.20;;;;;;4995400;28;20565;-69
2023/06/15 07:03:56;;;;;;;5.13;3.00;;;25.20;49.50;;;;;;4995324;28;20526;-69
2023/06/15 07:06:22;;;;;;;6.07;2.63;;;25.50;49.30;;;;;;4995112;28;20065;-69
2023/06/15 07:08:48;;;;;;;4.88;2.90;;;25.60;48.10;;;;;;4995051;28;20034;-69
2023/06/15 07:11:14;;;;;;;5.43;3.33;;;25.60;48.00;;;;;;4994897;28;20499;-69
2023/06/15 07:13:40;;;;;;;8.73;3.17;;;25.90;46.70;;;;;;4995485;28;20049;-69
2023/06/15 07:16:06;;;;;;;4.45;2.85;;;25.80;46.00;;;;;;4995341;28;20042;-69
2023/06/15 07:18:32;;;;;;;4.68;3.15;;;25.70;45.40;;;;;;4995007;28;20042;-69
2023/06/15 07:20:57;;;;;;;6.82;3.67;;;25.90;45.20;;;;;;4994654;28;20046;-69
2023/06/15 07:23:23;;;;;;;4.22;2.85;;;25.90;44.60;;;;;;4994259;28;20038;-69
2023/06/15 07:25:50;;;;;;;4.60;2.78;;;25.90;44.80;;;;;;4994534;28;20499;-69
2023/06/15 07:28:16;;;;;;;5.72;3.05;;;26.20;45.10;;;;;;4993864;28;20038;-69
2023/06/15 07:30:43;;;;;;;5.72;3.20;;;26.50;44.60;;;;;;4994021;28;20031;-70
2023/06/15 07:33:09;;;;;;;5.63;2.65;;;26.90;46.00;;;;;;4994648;28;20050;-69
2023/06/15 07:35:35;;;;;;;3.85;2.70;;;27.10;44.80;;;;;;4993771;28;20039;-70
2023/06/15 07:38:00;;;;;;;7.20;2.85;;;27.20;45.20;;;;;;4976938;28;20093;-69
2023/06/15 07:40:26;;;;;;;3.70;2.28;;;27.40;44.40;;;;;;4994588;28;20052;-70
2023/06/15 07:42:52;;;;;;;4.40;2.97;;;27.50;44.60;;;;;;4993811;28;20069;-69
2023/06/15 07:45:17;;;;;;;5.85;2.72;;;27.50;42.70;;;;;;4994867;28;20486;-69
2023/06/15 07:47:43;;;;;;;2.35;2.05;;;27.50;41.70;;;;;;4994687;28;20518;-68
2023/06/15 07:50:09;;;;;;;5.00;2.65;;;27.70;42.00;;;;;;4994193;28;20061;-68
2023/06/15 07:52:34;;;;;;;3.20;2.45;;;27.90;42.20;;;;;;4993318;28;20132;-68
2023/06/15 07:55:00;;;;;;;3.38;2.65;;;27.80;41.20;;;;;;4994789;28;20038;-68
2023/06/15 07:57:26;;;;;;;5.18;2.35;;;27.60;40.00;;;;;;4994328;28;20522;-68
2023/06/15 07:59:52;;;;;;;4.95;2.47;;;27.30;39.10;;;;;;4994039;28;20046;-68
2023/06/15 08:02:18;;;;;;;4.30;2.10;;;27.40;39.00;;;;;;4994411;28;20445;-68
2023/06/15 08:04:43;;;;;;;6.65;2.25;;;27.50;39.20;;;;;;4992924;28;20046;-68
2023/06/15 08:07:09;;;;;;;4.93;3.70;;;27.50;38.30;;;;;;4993839;28;20169;-68
2023/06/15 08:09:35;;;;;;;8.38;2.25;;;27.50;38.50;;;;;;4993472;28;20038;-68
2023/06/15 08:12:01;;;;;;;4.85;2.40;;;27.60;38.90;;;;;;4994130;28;20489;-67
2023/06/15 08:14:27;;;;;;;4.93;2.30;;;27.50;39.60;;;;;;4992860;28;20054;-67
2023/06/15 08:16:52;;;;;;;3.72;2.55;;;27.50;39.90;;;;;;4993785;28;20049;-68
2023/06/15 08:19:18;;;;;;;6.90;2.30;;;27.90;39.70;;;;;;4993603;28;20042;-68
2023/06/15 08:21:44;;;;;;;3.08;1.95;;;28.00;39.70;;;;;;4993941;28;20077;-68
2023/06/15 08:24:10;;;;;;;3.42;2.20;;;28.20;39.30;;;;;;4994112;28;20065;-68
2023/06/15 08:26:35;;;;;;;3.65;2.00;;;28.50;39.10;;;;;;4993006;28;20041;-68
2023/06/15 08:29:01;;;;;;;6.50;2.85;;;28.20;36.80;;;;;;4992949;28;20040;-69
2023/06/15 08:31:28;;;;;;;9.80;2.60;;;27.80;37.20;;;;;;4993262;28;20049;-68
2023/06/15 08:33:54;;;;;;;5.47;2.45;;;27.90;37.80;;;;;;4993461;28;20085;-68
2023/06/15 08:36:19;;;;;;;5.00;2.58;;;27.80;37.00;;;;;;4991945;28;20042;-68
2023/06/15 08:38:45;;;;;;;4.95;1.88;;;28.00;36.90;;;;;;4989618;28;20042;-68
2023/06/15 08:41:11;;;;;;;3.42;2.22;;;27.80;36.40;;;;;;4991367;28;20047;-69
2023/06/15 08:43:38;;;;;;;6.50;2.45;;;27.90;35.50;;;;;;4991431;28;20049;-69
2023/06/15 08:46:04;;;;;;;4.70;2.80;;;28.00;35.70;;;;;;4987476;28;20553;-69
2023/06/15 08:48:32;;;;;;;5.25;2.08;;;28.10;35.60;;;;;;4993232;28;20035;-69
2023/06/15 08:50:58;;;;;;;6.13;2.50;;;28.20;35.00;;;;;;4992931;28;20034;-68
2023/06/15 08:53:27;;;;;;;3.85;2.53;;;28.00;34.80;;;;;;4993629;28;20125;-68
2023/06/15 08:55:52;;;;;;;3.60;2.08;;;28.10;34.80;;;;;;4993620;28;20538;-69
2023/06/15 08:58:18;;;;;;;6.72;2.30;;;27.90;35.70;;;;;;4993253;28;20052;-68
2023/06/15 09:00:44;;;;;;;3.83;2.33;;;27.90;35.40;;;;;;4993035;28;20046;-68
2023/06/15 09:03:10;;;;;;;5.80;2.33;;;28.20;35.20;;;;;;4992045;28;20542;-68
2023/06/15 09:05:36;;;;;;;9.90;2.83;;;28.20;35.30;;;;;;4993192;28;20038;-68
2023/06/15 09:08:03;;;;;;;4.78;2.83;;;28.10;35.50;;;;;;4993063;28;20110;-68
2023/06/15 09:10:31;;;;;;;4.63;2.20;;;28.30;35.80;;;;;;4990921;28;20105;-68
2023/06/15 09:12:57;;;;;;;4.40;2.33;;;28.20;33.90;;;;;;4993016;28;20078;-68
2023/06/15 09:15:29;;;;;;;4.75;2.53;;;28.20;33.00;;;;;;4993021;28;20498;-68
2023/06/15 09:17:56;;;;;;;5.30;2.70;;;28.00;33.30;;;;;;4992713;28;20104;-68
2023/06/15 09:20:24;;;;;;;5.00;2.10;;;28.30;34.30;;;;;;4991165;28;20053;-68
2023/06/15 09:22:50;;;;;;;3.63;2.00;;;28.50;32.70;;;;;;4992976;28;20050;-69
2023/06/15 09:25:21;;;;;;;5.07;2.30;;;28.40;31.80;;;;;;4991666;28;20038;-68
2023/06/15 09:27:54;;;;;;;4.03;2.30;;;28.30;31.50;;;;;;4992530;28;20066;-69
2023/06/15 09:30:21;;;;;;;5.13;2.65;;;28.40;32.40;;;;;;4992210;28;20057;-68
2023/06/15 09:32:46;;;;;;;4.70;2.33;;;28.30;32.10;;;;;;4991640;28;20053;-69
2023/06/15 09:35:13;;;;;;;3.78;2.35;;;28.30;32.30;;;;;;4992610;28;20039;-68
2023/06/15 09:37:38;;;;;;;4.32;2.50;;;28.50;33.00;;;;;;4992253;28;20553;-68
2023/06/15 09:40:07;;;;;;;5.00;2.75;;;28.60;33.40;;;;;;4992131;28;20034;-68
2023/06/15 09:42:35;;;;;;;4.43;2.50;;;28.90;34.30;;;;;;4992624;28;20039;-68
2023/06/15 09:45:03;;;;;;;3.28;2.10;;;28.80;31.60;;;;;;4990660;28;20038;-68
2023/06/15 09:47:30;;;;;;;5.18;2.65;;;28.60;30.60;;;;;;4992085;28;20442;-68
2023/06/15 09:49:55;;;;;;;6.40;2.28;;;28.50;30.40;;;;;;4991965;28;20545;-68
2023/06/15 09:52:21;;;;;;;3.65;2.17;;;28.30;30.20;;;;;;4992532;28;20030;-68
2023/06/15 09:54:48;;;;;;;5.50;2.20;;;28.40;30.30;;;;;;4992495;28;20400;-68
2023/06/15 09:57:18;;;;;;;4.07;2.15;;;28.40;29.80;;;;;;4990752;28;20046;-68
2023/06/15 09:59:44;;;;;;;5.60;2.58;;;28.20;29.20;;;;;;4991819;28;20081;-68
2023/06/15 10:02:11;;;;;;;6.72;2.55;;;27.90;29.20;;;;;;4992519;28;20050;-68
2023/06/15 10:04:40;;;;;;;5.78;2.53;;;28.00;28.60;;;;;;4992403;28;20145;-69
2023/06/15 10:07:08;;;;;;;5.97;2.78;;;28.30;29.60;;;;;;4991969;28;20064;-68
2023/06/15 10:09:45;;;;;;;5.78;2.63;;;28.40;30.70;;;;;;4991696;28;20097;-69
2023/06/15 10:12:21;;;;;;;4.78;2.67;;;28.40;29.40;;;;;;4991892;28;20092;-68
2023/06/15 10:14:59;;;;;;;4.00;2.00;;;28.60;29.20;;;;;;4992099;28;20047;-68
2023/06/15 10:17:30;;;;;;;5.90;2.92;;;28.70;29.40;;;;;;4992127;28;20038;-68
2023/06/15 10:20:07;;;;;;;4.35;2.50;;;28.70;29.10;;;;;;4991714;28;20553;-69
2023/06/15 10:22:34;;;;;;;3.42;2.05;;;28.80;29.60;;;;;;4974618;28;20125;-68
2023/06/15 10:25:00;;;;;;;5.18;2.65;;;28.70;28.90;;;;;;4992230;28;20057;-68
2023/06/15 10:27:26;;;;;;;3.60;2.53;;;28.70;28.80;;;;;;4990555;28;20042;-68
2023/06/15 10:30:23;;;;;;;6.68;2.90;;;28.50;28.20;;;;;;4991573;28;20121;-68
2023/06/15 10:33:03;;;;;;;7.50;2.67;;;28.30;26.70;;;;;;4991135;28;20102;-68
2023/06/15 10:35:35;;;;;;;4.72;2.55;;;28.10;27.40;;;;;;4991095;28;20149;-68
2023/06/15 10:38:22;;;;;;;3.60;2.20;;;27.80;27.60;;;;;;4991891;28;20038;-68
2023/06/15 10:40:49;;;;;;;4.68;2.30;;;28.00;28.00;;;;;;4991539;28;20046;-68
2023/06/15 10:43:19;;;;;;;4.47;2.50;;;28.00;28.20;;;;;;4991898;28;20113;-68
2023/06/15 10:45:46;;;;;;;4.78;2.38;;;27.70;28.00;;;;;;4991832;28;20106;-68
2023/06/15 10:48:21;;;;;;;4.10;2.42;;;27.70;28.90;;;;;;4991762;28;20172;-68
2023/06/15 10:50:53;;;;;;;4.63;2.28;;;27.60;27.90;;;;;;4991474;28;20081;-68
2023/06/15 10:53:26;;;;;;;7.72;2.13;;;27.50;28.00;;;;;;4991981;28;20046;-68
2023/06/15 10:55:56;;;;;;;5.90;2.45;;;27.50;27.50;;;;;;4991661;28;20051;-68
2023/06/15 10:58:24;;;;;;;4.40;2.45;;;27.40;26.90;;;;;;4991725;28;20057;-68
2023/06/15 11:01:16;;;;;;;2.72;2.00;;;27.50;27.00;;;;;;4991463;28;20074;-68
2023/06/15 11:03:42;;;;;;;4.80;2.33;;;27.20;26.50;;;;;;4993441;28;20100;-68
2023/06/15 11:06:15;;;;;;;2.88;2.33;;;27.20;26.60;;;;;;4995402;28;20038;-68
2023/06/15 11:08:52;;;;;;;2.97;2.45;;;27.10;25.80;;;;;;4989620;28;20109;-68
2023/06/15 11:11:37;;;;;;;5.20;2.25;;;27.10;25.90;;;;;;4994020;28;20046;-68
2023/06/15 11:14:07;;;;;;;4.72;3.30;;;27.10;25.10;;;;;;4993799;28;20050;-68
2023/06/15 11:16:37;;;;;;;4.28;2.05;;;26.80;24.70;;;;;;4994929;28;20053;-68
2023/06/15 11:19:12;;;;;;;4.38;2.00;;;26.80;24.40;;;;;;4994241;28;20457;-68
2023/06/15 11:21:44;;;;;;;3.35;2.45;;;26.70;24.70;;;;;;4995169;28;20096;-68
2023/06/15 11:24:13;;;;;;;4.93;2.30;;;26.50;25.50;;;;;;4994997;28;20042;-68
2023/06/15 11:26:40;;;;;;;5.32;2.47;;;26.80;26.30;;;;;;4994656;28;20453;-68
2023/06/15 11:29:08;;;;;;;4.65;2.28;;;26.80;26.50;;;;;;4994622;28;20450;-68
2023/06/15 11:31:34;;;;;;;3.40;2.40;;;27.00;26.60;;;;;;4994880;28;20035;-68
2023/06/15 11:34:00;;;;;;;4.85;2.38;;;27.00;25.80;;;;;;4995064;28;20042;-68
2023/06/15 11:36:26;;;;;;;3.63;2.30;;;26.90;25.40;;;;;;4994687;28;20064;-68
2023/06/15 11:38:53;;;;;;;4.47;2.28;;;26.90;25.60;;;;;;4993493;28;20046;-68
2023/06/15 11:41:19;;;;;;;7.28;2.58;;;26.80;26.40;;;;;;4994738;28;20050;-67
2023/06/15 11:43:50;;;;;;;3.33;2.30;;;26.90;26.80;;;;;;4994532;28;20038;-67
2023/06/15 11:46:20;;;;;;;4.05;2.50;;;26.80;26.80;;;;;;4994616;28;20035;-67
2023/06/15 11:48:47;;;;;;;2.35;1.98;;;26.90;29.20;;;;;;4994619;28;20494;-68
2023/06/15 11:51:14;;;;;;;5.72;2.70;;;27.00;29.00;;;;;;4994361;28;20042;-68
2023/06/15 11:53:41;;;;;;;4.95;2.67;;;27.10;28.60;;;;;;4994596;28;20047;-68
2023/06/15 11:56:08;;;;;;;3.35;2.10;;;27.10;28.00;;;;;;4994541;28;20042;-68
2023/06/15 11:58:34;;;;;;;4.28;2.30;;;27.00;26.80;;;;;;4994075;28;20069;-68
2023/06/15 12:01:00;;;;;;;5.40;2.20;;;26.90;26.80;;;;;;4994106;28;20046;-68
2023/06/15 12:03:26;;;;;;;4.30;2.40;;;26.80;28.10;;;;;;4994491;28;20105;-68
2023/06/15 12:05:57;;;;;;;4.68;2.10;;;26.60;27.30;;;;;;4994362;28;20047;-68
2023/06/15 12:08:24;;;;;;;2.58;2.10;;;26.60;26.60;;;;;;4994026;28;20047;-68
2023/06/15 12:10:51;;;;;;;3.55;2.10;;;26.60;26.30;;;;;;4993187;28;20042;-67
2023/06/15 12:13:17;;;;;;;6.50;2.20;;;26.80;26.10;;;;;;4992638;28;20042;-70
2023/06/15 12:15:46;;;;;;;4.40;1.88;;;26.70;24.80;;;;;;4992556;28;20403;-69
2023/06/15 12:18:12;;;;;;;4.65;2.60;;;26.60;25.10;;;;;;4993903;28;20046;-68
2023/06/15 12:20:38;;;;;;;4.45;2.22;;;26.60;25.20;;;;;;4993727;28;20047;-68
2023/06/15 12:23:06;;;;;;;4.25;2.58;;;26.60;24.90;;;;;;4994021;28;20065;-71
2023/06/15 12:25:47;;;;;;;4.00;2.65;;;26.60;24.90;;;;;;4993796;28;20038;-69
2023/06/15 12:28:15;;;;;;;2.30;1.83;;;26.50;25.30;;;;;;4993743;28;20038;-68
2023/06/15 12:30:42;;;;;;;4.00;2.15;;;26.60;25.20;;;;;;4992811;28;20042;-68
2023/06/15 12:33:23;;;;;;;5.38;2.05;;;26.60;25.40;;;;;;4993438;28;20047;-68
2023/06/15 12:35:51;;;;;;;3.63;2.40;;;26.50;24.80;;;;;;4991216;28;20042;-68
2023/06/15 12:38:16;;;;;;;5.93;2.40;;;26.60;24.90;;;;;;4991118;28;20529;-68
2023/06/15 12:40:43;;;;;;;5.32;2.28;;;26.50;24.80;;;;;;4993192;28;20042;-68
2023/06/15 12:43:09;;;;;;;3.75;1.75;;;26.40;25.10;;;;;;4993451;28;20505;-68
2023/06/15 12:45:35;;;;;;;4.40;2.13;;;26.60;24.90;;;;;;4993683;28;20057;-69